sensor_id;sensor_type;location;lat;lon;timestamp;pressure;altitude;pressure_sealevel;temperature;humidity
74868;BME280;63419;42.262;12.210;2023-04-01T00:01:56;96727.88;;;14.43;100.00
74868;BME280;63419;42.262;12.210;2023-04-01T00:04:24;96740.56;;;13.70;100.00
74868;BME280;63419;42.262;12.210;2023-04-01T00:06:51;96730.63;;;13.05;100.00
74868;BME280;63419;42.262;12.210;2023-04-01T00:09:19;96746.97;;;12.96;100.00
74868;BME280;63419;42.262;12.210;2023-04-01T00:11:46;96744.34;;;14.15;100.00
74868;BME280;63419;42.262;12.210;2023-04-01T00:14:20;96740.44;;;13.62;100.00
74868;BME280;63419;42.262;12.210;2023-04-01T00:16:53;96735.72;;;12.45;100.00
74868;BME280;63419;42.262;12.210;2023-04-01T00:19:22;96728.09;;;12.74;100.00
74868;BME280;63419;42.262;12.210;2023-04-01T00:21:53;96716.50;;;13.29;100.00
74868;BME280;63419;42.262;12.210;2023-04-01T00:24:22;96708.38;;;13.33;100.00
74868;BME280;63419;42.262;12.210;2023-04-01T00:26:50;96713.91;;;14.54;100.00
74868;BME280;63419;42.262;12.210;2023-04-01T00:29:22;96717.38;;;14.92;100.00
74868;BME280;63419;42.262;12.210;2023-04-01T00:32:03;96721.28;;;14.69;100.00
74868;BME280;63419;42.262;12.210;2023-04-01T00:34:31;96715.06;;;14.79;100.00
74868;BME280;63419;42.262;12.210;2023-04-01T00:37:03;96725.03;;;14.84;100.00
74868;BME280;63419;42.262;12.210;2023-04-01T00:39:34;96727.63;;;14.46;100.00
74868;BME280;63419;42.262;12.210;2023-04-01T00:42:23;96723.09;;;13.92;100.00
74868;BME280;63419;42.262;12.210;2023-04-01T00:44:54;96726.09;;;13.58;100.00
74868;BME280;63419;42.262;12.210;2023-04-01T00:47:29;96739.19;;;14.05;100.00
74868;BME280;63419;42.262;12.210;2023-04-01T00:50:08;96740.84;;;13.57;100.00
74868;BME280;63419;42.262;12.210;2023-04-01T00:53:03;96724.00;;;14.20;100.00
74868;BME280;63419;42.262;12.210;2023-04-01T00:55:45;96685.13;;;14.47;100.00
74868;BME280;63419;42.262;12.210;2023-04-01T00:58:18;96667.25;;;14.44;100.00
74868;BME280;63419;42.262;12.210;2023-04-01T01:00:55;96670.72;;;14.73;100.00
74868;BME280;63419;42.262;12.210;2023-04-01T01:03:24;96665.91;;;14.40;100.00
74868;BME280;63419;42.262;12.210;2023-04-01T01:09:20;96658.16;;;13.74;100.00
74868;BME280;63419;42.262;12.210;2023-04-01T01:12:31;96652.41;;;13.02;100.00
74868;BME280;63419;42.262;12.210;2023-04-01T01:15:30;96662.41;;;12.66;100.00
74868;BME280;63419;42.262;12.210;2023-04-01T01:27:04;96643.66;;;12.93;100.00
74868;BME280;63419;42.262;12.210;2023-04-01T01:33:30;96640.44;;;13.69;100.00
74868;BME280;63419;42.262;12.210;2023-04-01T01:36:05;96641.66;;;13.65;100.00
74868;BME280;63419;42.262;12.210;2023-04-01T01:38:37;96648.84;;;13.81;100.00
74868;BME280;63419;42.262;12.210;2023-04-01T01:41:08;96643.41;;;13.74;100.00
74868;BME280;63419;42.262;12.210;2023-04-01T01:43:46;96638.78;;;13.29;100.00
74868;BME280;63419;42.262;12.210;2023-04-01T01:46:23;96650.06;;;13.86;100.00
74868;BME280;63419;42.262;12.210;2023-04-01T01:48:59;96655.47;;;14.50;100.00
74868;BME280;63419;42.262;12.210;2023-04-01T01:51:28;96645.22;;;14.11;100.00
74868;BME280;63419;42.262;12.210;2023-04-01T01:53:59;96648.31;;;13.87;100.00
74868;BME280;63419;42.262;12.210;2023-04-01T01:56:30;96657.41;;;14.38;100.00
74868;BME280;63419;42.262;12.210;2023-04-01T01:59:03;96659.06;;;14.39;100.00
74868;BME280;63419;42.262;12.210;2023-04-01T02:01:45;96650.63;;;13.70;100.00
74868;BME280;63419;42.262;12.210;2023-04-01T02:04:18;96658.81;;;13.76;100.00
74868;BME280;63419;42.262;12.210;2023-04-01T02:07:02;96657.28;;;12.85;100.00
74868;BME280;63419;42.262;12.210;2023-04-01T02:09:31;96659.94;;;13.44;100.00
74868;BME280;63419;42.262;12.210;2023-04-01T02:12:14;96656.50;;;13.14;100.00
74868;BME280;63419;42.262;12.210;2023-04-01T02:14:57;96665.66;;;13.57;100.00
74868;BME280;63419;42.262;12.210;2023-04-01T02:17:33;96663.19;;;13.26;100.00
74868;BME280;63419;42.262;12.210;2023-04-01T02:20:16;96655.78;;;14.00;100.00
74868;BME280;63419;42.262;12.210;2023-04-01T02:22:50;96645.44;;;13.22;100.00
74868;BME280;63419;42.262;12.210;2023-04-01T02:25:28;96639.63;;;13.59;100.00
74868;BME280;63419;42.262;12.210;2023-04-01T02:28:01;96643.22;;;12.98;100.00
74868;BME280;63419;42.262;12.210;2023-04-01T02:30:34;96634.91;;;12.74;100.00
74868;BME280;63419;42.262;12.210;2023-04-01T02:33:21;96619.84;;;12.49;100.00
74868;BME280;63419;42.262;12.210;2023-04-01T02:35:51;96616.88;;;12.63;100.00
74868;BME280;63419;42.262;12.210;2023-04-01T02:38:23;96625.72;;;12.10;100.00
74868;BME280;63419;42.262;12.210;2023-04-01T02:41:00;96618.63;;;12.12;100.00
74868;BME280;63419;42.262;12.210;2023-04-01T02:43:30;96616.75;;;12.65;100.00
74868;BME280;63419;42.262;12.210;2023-04-01T02:46:00;96616.25;;;12.90;100.00
74868;BME280;63419;42.262;12.210;2023-04-01T02:48:41;96611.38;;;13.26;100.00
74868;BME280;63419;42.262;12.210;2023-04-01T02:51:09;96607.44;;;13.42;100.00
74868;BME280;63419;42.262;12.210;2023-04-01T02:53:36;96620.50;;;13.11;100.00
74868;BME280;63419;42.262;12.210;2023-04-01T02:56:11;96625.41;;;13.14;100.00
74868;BME280;63419;42.262;12.210;2023-04-01T02:58:40;96626.75;;;13.28;100.00
74868;BME280;63419;42.262;12.210;2023-04-01T03:01:10;96629.78;;;13.23;100.00
74868;BME280;63419;42.262;12.210;2023-04-01T03:03:44;96641.53;;;13.37;100.00
74868;BME280;63419;42.262;12.210;2023-04-01T03:06:17;96643.97;;;13.68;100.00
74868;BME280;63419;42.262;12.210;2023-04-01T03:08:53;96640.41;;;13.79;100.00
74868;BME280;63419;42.262;12.210;2023-04-01T03:11:20;96637.41;;;13.83;100.00
74868;BME280;63419;42.262;12.210;2023-04-01T03:13:49;96645.84;;;13.76;100.00
74868;BME280;63419;42.262;12.210;2023-04-01T03:16:19;96657.84;;;13.86;100.00
74868;BME280;63419;42.262;12.210;2023-04-01T03:18:49;96646.84;;;14.22;100.00
74868;BME280;63419;42.262;12.210;2023-04-01T03:21:21;96656.72;;;14.08;100.00
74868;BME280;63419;42.262;12.210;2023-04-01T03:23:49;96647.09;;;13.13;100.00
74868;BME280;63419;42.262;12.210;2023-04-01T03:26:19;96660.28;;;13.10;100.00
74868;BME280;63419;42.262;12.210;2023-04-01T03:28:52;96652.72;;;13.38;100.00
74868;BME280;63419;42.262;12.210;2023-04-01T03:31:19;96655.56;;;13.35;100.00
74868;BME280;63419;42.262;12.210;2023-04-01T03:33:49;96640.94;;;12.94;100.00
74868;BME280;63419;42.262;12.210;2023-04-01T03:36:17;96653.09;;;10.51;100.00
74868;BME280;63419;42.262;12.210;2023-04-01T03:38:45;96657.28;;;10.63;100.00
74868;BME280;63419;42.262;12.210;2023-04-01T03:41:17;96663.66;;;11.14;100.00
74868;BME280;63419;42.262;12.210;2023-04-01T03:43:45;96660.13;;;11.15;100.00
74868;BME280;63419;42.262;12.210;2023-04-01T03:46:19;96665.78;;;11.41;100.00
74868;BME280;63419;42.262;12.210;2023-04-01T03:48:47;96659.16;;;10.84;100.00
74868;BME280;63419;42.262;12.210;2023-04-01T03:51:19;96664.38;;;10.50;100.00
74868;BME280;63419;42.262;12.210;2023-04-01T03:53:47;96652.59;;;10.01;100.00
74868;BME280;63419;42.262;12.210;2023-04-01T03:56:15;96638.69;;;9.57;100.00
74868;BME280;63419;42.262;12.210;2023-04-01T03:58:46;96632.81;;;9.55;100.00
74868;BME280;63419;42.262;12.210;2023-04-01T04:01:22;96631.50;;;10.41;100.00
74868;BME280;63419;42.262;12.210;2023-04-01T04:03:52;96631.56;;;10.84;100.00
74868;BME280;63419;42.262;12.210;2023-04-01T04:06:20;96620.97;;;11.52;100.00
74868;BME280;63419;42.262;12.210;2023-04-01T04:08:55;96622.72;;;11.31;100.00
74868;BME280;63419;42.262;12.210;2023-04-01T04:11:23;96615.69;;;11.00;100.00
74868;BME280;63419;42.262;12.210;2023-04-01T04:13:53;96595.19;;;10.44;100.00
74868;BME280;63419;42.262;12.210;2023-04-01T04:16:25;96594.09;;;10.58;100.00
74868;BME280;63419;42.262;12.210;2023-04-01T04:18:53;96596.50;;;11.35;100.00
74868;BME280;63419;42.262;12.210;2023-04-01T04:21:20;96589.69;;;11.13;100.00
74868;BME280;63419;42.262;12.210;2023-04-01T04:23:48;96596.19;;;11.08;100.00
74868;BME280;63419;42.262;12.210;2023-04-01T04:26:31;96606.41;;;10.65;100.00
74868;BME280;63419;42.262;12.210;2023-04-01T04:28:58;96621.19;;;10.63;100.00
74868;BME280;63419;42.262;12.210;2023-04-01T04:31:29;96625.84;;;10.81;100.00
74868;BME280;63419;42.262;12.210;2023-04-01T04:34:00;96611.75;;;10.85;100.00
74868;BME280;63419;42.262;12.210;2023-04-01T04:36:32;96603.06;;;10.31;100.00
74868;BME280;63419;42.262;12.210;2023-04-01T04:38:59;96598.22;;;10.15;100.00
74868;BME280;63419;42.262;12.210;2023-04-01T04:41:28;96604.56;;;10.34;100.00
74868;BME280;63419;42.262;12.210;2023-04-01T04:43:59;96617.41;;;10.67;100.00
74868;BME280;63419;42.262;12.210;2023-04-01T04:46:29;96637.09;;;10.91;100.00
74868;BME280;63419;42.262;12.210;2023-04-01T04:48:57;96640.41;;;11.14;100.00
74868;BME280;63419;42.262;12.210;2023-04-01T04:51:33;96640.59;;;10.90;100.00
74868;BME280;63419;42.262;12.210;2023-04-01T04:54:06;96644.56;;;11.05;100.00
74868;BME280;63419;42.262;12.210;2023-04-01T04:56:34;96645.25;;;11.08;100.00
74868;BME280;63419;42.262;12.210;2023-04-01T04:59:02;96646.03;;;11.19;100.00
74868;BME280;63419;42.262;12.210;2023-04-01T05:01:29;96639.19;;;10.86;100.00
74868;BME280;63419;42.262;12.210;2023-04-01T05:04:03;96657.53;;;10.72;100.00
74868;BME280;63419;42.262;12.210;2023-04-01T05:06:30;96662.50;;;10.96;100.00
74868;BME280;63419;42.262;12.210;2023-04-01T05:09:04;96661.19;;;11.13;100.00
74868;BME280;63419;42.262;12.210;2023-04-01T05:11:39;96661.69;;;10.95;100.00
74868;BME280;63419;42.262;12.210;2023-04-01T05:14:16;96670.97;;;10.86;100.00
74868;BME280;63419;42.262;12.210;2023-04-01T05:16:43;96671.72;;;10.55;100.00
74868;BME280;63419;42.262;12.210;2023-04-01T05:19:26;96678.84;;;10.96;100.00
74868;BME280;63419;42.262;12.210;2023-04-01T05:21:54;96675.41;;;11.07;100.00
74868;BME280;63419;42.262;12.210;2023-04-01T05:24:22;96673.25;;;11.23;100.00
74868;BME280;63419;42.262;12.210;2023-04-01T05:26:52;96682.31;;;11.39;100.00
74868;BME280;63419;42.262;12.210;2023-04-01T05:29:26;96675.94;;;11.54;100.00
74868;BME280;63419;42.262;12.210;2023-04-01T05:32:12;96671.09;;;11.61;100.00
74868;BME280;63419;42.262;12.210;2023-04-01T05:34:55;96665.59;;;11.75;100.00
74868;BME280;63419;42.262;12.210;2023-04-01T05:37:25;96677.78;;;12.27;100.00
74868;BME280;63419;42.262;12.210;2023-04-01T05:39:59;96671.66;;;11.86;100.00
74868;BME280;63419;42.262;12.210;2023-04-01T05:42:27;96674.44;;;12.15;100.00
74868;BME280;63419;42.262;12.210;2023-04-01T05:44:57;96674.22;;;12.59;100.00
74868;BME280;63419;42.262;12.210;2023-04-01T05:47:30;96671.47;;;12.19;100.00
74868;BME280;63419;42.262;12.210;2023-04-01T05:49:59;96689.94;;;12.36;100.00
74868;BME280;63419;42.262;12.210;2023-04-01T05:52:31;96700.97;;;12.38;100.00
74868;BME280;63419;42.262;12.210;2023-04-01T05:55:01;96704.25;;;12.71;100.00
74868;BME280;63419;42.262;12.210;2023-04-01T05:57:32;96709.09;;;11.70;100.00
74868;BME280;63419;42.262;12.210;2023-04-01T06:00:10;96730.94;;;10.79;100.00
74868;BME280;63419;42.262;12.210;2023-04-01T06:02:43;96720.66;;;11.55;100.00
74868;BME280;63419;42.262;12.210;2023-04-01T06:05:21;96721.91;;;10.62;100.00
74868;BME280;63419;42.262;12.210;2023-04-01T06:08:10;96733.34;;;11.26;100.00
74868;BME280;63419;42.262;12.210;2023-04-01T06:19:56;96760.50;;;10.75;100.00
74868;BME280;63419;42.262;12.210;2023-04-01T06:38:14;96769.13;;;12.06;100.00
74868;BME280;63419;42.262;12.210;2023-04-01T06:41:23;96757.00;;;12.28;100.00
74868;BME280;63419;42.262;12.210;2023-04-01T06:44:15;96756.56;;;12.44;100.00
74868;BME280;63419;42.262;12.210;2023-04-01T06:52:30;96764.19;;;11.71;100.00
74868;BME280;63419;42.262;12.210;2023-04-01T06:55:41;96770.31;;;12.44;100.00
74868;BME280;63419;42.262;12.210;2023-04-01T06:58:42;96776.88;;;12.06;100.00
74868;BME280;63419;42.262;12.210;2023-04-01T07:01:26;96781.59;;;12.01;100.00
74868;BME280;63419;42.262;12.210;2023-04-01T07:04:05;96777.75;;;11.95;100.00
74868;BME280;63419;42.262;12.210;2023-04-01T07:07:01;96776.56;;;13.03;100.00
74868;BME280;63419;42.262;12.210;2023-04-01T07:09:41;96776.06;;;12.79;100.00
74868;BME280;63419;42.262;12.210;2023-04-01T07:12:33;96767.03;;;13.74;100.00
74868;BME280;63419;42.262;12.210;2023-04-01T07:15:24;96768.34;;;14.93;100.00
74868;BME280;63419;42.262;12.210;2023-04-01T07:18:44;96756.84;;;15.23;100.00
74868;BME280;63419;42.262;12.210;2023-04-01T07:21:17;96779.25;;;12.61;100.00
74868;BME280;63419;42.262;12.210;2023-04-01T07:23:59;96785.34;;;12.81;100.00
74868;BME280;63419;42.262;12.210;2023-04-01T07:26:29;96788.22;;;12.78;100.00
74868;BME280;63419;42.262;12.210;2023-04-01T07:28:59;96786.13;;;13.53;100.00
74868;BME280;63419;42.262;12.210;2023-04-01T07:34:55;96786.28;;;13.81;100.00
74868;BME280;63419;42.262;12.210;2023-04-01T07:38:56;96776.88;;;13.70;100.00
74868;BME280;63419;42.262;12.210;2023-04-01T07:47:01;96788.59;;;13.74;100.00
74868;BME280;63419;42.262;12.210;2023-04-01T07:53:21;96788.00;;;14.48;100.00
74868;BME280;63419;42.262;12.210;2023-04-01T07:56:31;96790.47;;;13.52;100.00
74868;BME280;63419;42.262;12.210;2023-04-01T07:59:50;96788.88;;;14.20;100.00
74868;BME280;63419;42.262;12.210;2023-04-01T08:06:03;96776.25;;;14.44;100.00
74868;BME280;63419;42.262;12.210;2023-04-01T08:09:02;96782.19;;;13.88;100.00
74868;BME280;63419;42.262;12.210;2023-04-01T08:12:12;96776.19;;;13.87;100.00
74868;BME280;63419;42.262;12.210;2023-04-01T08:21:21;96776.72;;;14.11;100.00
74868;BME280;63419;42.262;12.210;2023-04-01T08:23:56;96779.13;;;14.51;100.00
74868;BME280;63419;42.262;12.210;2023-04-01T08:26:39;96798.72;;;13.67;100.00
74868;BME280;63419;42.262;12.210;2023-04-01T08:29:22;96783.16;;;13.67;100.00
74868;BME280;63419;42.262;12.210;2023-04-01T08:32:22;96787.78;;;14.13;100.00
74868;BME280;63419;42.262;12.210;2023-04-01T08:35:38;96791.19;;;14.23;100.00
74868;BME280;63419;42.262;12.210;2023-04-01T08:57:44;96774.94;;;15.15;100.00
74868;BME280;63419;42.262;12.210;2023-04-01T09:00:24;96778.25;;;14.70;100.00
74868;BME280;63419;42.262;12.210;2023-04-01T09:26:15;96783.66;;;16.06;100.00
74868;BME280;63419;42.262;12.210;2023-04-01T09:38:29;96759.19;;;16.43;100.00
74868;BME280;63419;42.262;12.210;2023-04-01T09:47:49;96730.38;;;18.21;100.00
74868;BME280;63419;42.262;12.210;2023-04-01T09:50:50;96736.66;;;16.07;100.00
74868;BME280;63419;42.262;12.210;2023-04-01T09:54:23;96732.63;;;17.75;100.00
74868;BME280;63419;42.262;12.210;2023-04-01T10:03:11;96722.34;;;17.33;100.00
74868;BME280;63419;42.262;12.210;2023-04-01T10:33:40;96701.38;;;19.12;100.00
74868;BME280;63419;42.262;12.210;2023-04-01T11:15:44;96655.00;;;17.11;100.00
74868;BME280;63419;42.262;12.210;2023-04-01T11:34:32;96644.31;;;18.44;100.00
74868;BME280;63419;42.262;12.210;2023-04-01T11:37:25;96646.09;;;18.44;100.00
74868;BME280;63419;42.262;12.210;2023-04-01T11:50:18;96645.06;;;18.61;100.00
74868;BME280;63419;42.262;12.210;2023-04-01T11:56:07;96662.47;;;17.06;100.00
74868;BME280;63419;42.262;12.210;2023-04-01T12:05:33;96631.88;;;18.55;100.00
74868;BME280;63419;42.262;12.210;2023-04-01T12:14:32;96624.69;;;19.43;100.00
74868;BME280;63419;42.262;12.210;2023-04-01T12:23:05;96628.22;;;18.24;100.00
74868;BME280;63419;42.262;12.210;2023-04-01T12:32:20;96627.09;;;18.98;100.00
74868;BME280;63419;42.262;12.210;2023-04-01T12:53:41;96599.34;;;22.35;100.00
74868;BME280;63419;42.262;12.210;2023-04-01T13:05:31;96582.09;;;18.79;100.00
74868;BME280;63419;42.262;12.210;2023-04-01T13:17:35;96608.88;;;19.97;100.00
74868;BME280;63419;42.262;12.210;2023-04-01T13:33:03;96601.56;;;17.65;100.00
74868;BME280;63419;42.262;12.210;2023-04-01T13:35:51;96598.47;;;18.34;100.00
74868;BME280;63419;42.262;12.210;2023-04-01T13:43:07;96598.00;;;18.70;100.00
74868;BME280;63419;42.262;12.210;2023-04-01T13:45:25;96588.28;;;19.56;100.00
74868;BME280;63419;42.262;12.210;2023-04-01T13:51:29;96576.75;;;20.54;100.00
74868;BME280;63419;42.262;12.210;2023-04-01T14:24:45;96560.00;;;17.30;100.00
74868;BME280;63419;42.262;12.210;2023-04-01T14:30:59;96559.66;;;20.07;100.00
74868;BME280;63419;42.262;12.210;2023-04-01T14:40:20;96536.25;;;18.45;100.00
74868;BME280;63419;42.262;12.210;2023-04-01T14:49:15;96571.16;;;18.84;100.00
74868;BME280;63419;42.262;12.210;2023-04-01T14:51:49;96557.69;;;18.64;100.00
74868;BME280;63419;42.262;12.210;2023-04-01T14:54:50;96546.31;;;18.25;100.00
74868;BME280;63419;42.262;12.210;2023-04-01T14:57:31;96550.97;;;19.39;100.00
74868;BME280;63419;42.262;12.210;2023-04-01T15:00:14;96557.34;;;19.59;100.00
74868;BME280;63419;42.262;12.210;2023-04-01T15:05:49;96552.06;;;19.07;100.00
74868;BME280;63419;42.262;12.210;2023-04-01T15:08:50;96548.66;;;19.44;100.00
74868;BME280;63419;42.262;12.210;2023-04-01T15:20:49;96558.00;;;18.38;100.00
74868;BME280;63419;42.262;12.210;2023-04-01T15:23:56;96548.13;;;17.28;100.00
74868;BME280;63419;42.262;12.210;2023-04-01T15:48:01;96542.44;;;18.76;100.00
74868;BME280;63419;42.262;12.210;2023-04-01T15:51:17;96544.09;;;16.42;100.00
74868;BME280;63419;42.262;12.210;2023-04-01T15:54:27;96533.66;;;16.50;100.00
74868;BME280;63419;42.262;12.210;2023-04-01T15:57:23;96549.34;;;18.37;100.00
74868;BME280;63419;42.262;12.210;2023-04-01T16:00:28;96545.22;;;18.43;100.00
74868;BME280;63419;42.262;12.210;2023-04-01T16:03:42;96552.81;;;17.74;100.00
74868;BME280;63419;42.262;12.210;2023-04-01T16:16:02;96549.81;;;16.62;100.00
74868;BME280;63419;42.262;12.210;2023-04-01T16:18:50;96548.28;;;17.18;100.00
74868;BME280;63419;42.262;12.210;2023-04-01T16:22:05;96556.25;;;17.08;100.00
74868;BME280;63419;42.262;12.210;2023-04-01T16:25:36;96551.25;;;15.09;100.00
74868;BME280;63419;42.262;12.210;2023-04-01T16:30:32;96568.47;;;14.92;100.00
74868;BME280;63419;42.262;12.210;2023-04-01T16:33:10;96559.31;;;15.23;100.00
74868;BME280;63419;42.262;12.210;2023-04-01T16:38:42;96545.63;;;15.84;100.00
74868;BME280;63419;42.262;12.210;2023-04-01T16:41:31;96552.06;;;15.53;100.00
74868;BME280;63419;42.262;12.210;2023-04-01T16:44:26;96544.13;;;15.11;100.00
74868;BME280;63419;42.262;12.210;2023-04-01T16:47:22;96557.91;;;15.29;100.00
74868;BME280;63419;42.262;12.210;2023-04-01T16:50:30;96548.31;;;15.48;100.00
74868;BME280;63419;42.262;12.210;2023-04-01T16:58:41;96554.28;;;14.13;100.00
74868;BME280;63419;42.262;12.210;2023-04-01T17:01:48;96565.41;;;14.05;100.00
74868;BME280;63419;42.262;12.210;2023-04-01T17:13:41;96564.22;;;14.45;100.00
74868;BME280;63419;42.262;12.210;2023-04-01T17:16:30;96568.75;;;14.43;100.00
74868;BME280;63419;42.262;12.210;2023-04-01T17:19:24;96580.69;;;13.98;100.00
74868;BME280;63419;42.262;12.210;2023-04-01T17:22:27;96574.06;;;13.86;100.00
74868;BME280;63419;42.262;12.210;2023-04-01T17:30:59;96583.50;;;13.77;100.00
74868;BME280;63419;42.262;12.210;2023-04-01T17:37:53;96575.78;;;12.89;100.00
74868;BME280;63419;42.262;12.210;2023-04-01T17:43:24;96587.53;;;13.03;100.00
74868;BME280;63419;42.262;12.210;2023-04-01T17:45:57;96583.97;;;12.94;100.00
74868;BME280;63419;42.262;12.210;2023-04-01T17:52:06;96586.84;;;13.97;100.00
74868;BME280;63419;42.262;12.210;2023-04-01T17:57:52;96594.88;;;13.18;100.00
74868;BME280;63419;42.262;12.210;2023-04-01T18:09:29;96611.97;;;15.26;100.00
74868;BME280;63419;42.262;12.210;2023-04-01T18:15:21;96610.91;;;15.36;100.00
74868;BME280;63419;42.262;12.210;2023-04-01T18:27:24;96634.19;;;13.42;100.00
74868;BME280;63419;42.262;12.210;2023-04-01T18:30:15;96630.34;;;13.46;100.00
74868;BME280;63419;42.262;12.210;2023-04-01T18:33:17;96634.41;;;13.29;100.00
74868;BME280;63419;42.262;12.210;2023-04-01T18:39:22;96638.53;;;13.51;100.00
74868;BME280;63419;42.262;12.210;2023-04-01T18:45:45;96651.38;;;13.33;100.00
74868;BME280;63419;42.262;12.210;2023-04-01T18:48:51;96654.00;;;13.03;100.00
74868;BME280;63419;42.262;12.210;2023-04-01T18:51:46;96671.34;;;13.02;100.00
74868;BME280;63419;42.262;12.210;2023-04-01T18:54:30;96664.13;;;13.25;100.00
74868;BME280;63419;42.262;12.210;2023-04-01T18:57:12;96662.78;;;13.21;100.00
74868;BME280;63419;42.262;12.210;2023-04-01T19:00:03;96664.38;;;12.93;100.00
74868;BME280;63419;42.262;12.210;2023-04-01T19:05:42;96668.22;;;13.28;100.00
74868;BME280;63419;42.262;12.210;2023-04-01T19:08:38;96671.00;;;13.36;100.00
74868;BME280;63419;42.262;12.210;2023-04-01T19:11:20;96666.03;;;13.23;100.00
74868;BME280;63419;42.262;12.210;2023-04-01T19:14:34;96665.41;;;13.41;100.00
74868;BME280;63419;42.262;12.210;2023-04-01T19:33:17;96659.38;;;13.30;100.00
74868;BME280;63419;42.262;12.210;2023-04-01T19:42:31;96672.63;;;13.37;100.00
74868;BME280;63419;42.262;12.210;2023-04-01T19:45:51;96678.91;;;13.35;100.00
74868;BME280;63419;42.262;12.210;2023-04-01T19:48:56;96681.38;;;13.46;100.00
74868;BME280;63419;42.262;12.210;2023-04-01T19:57:46;96678.63;;;13.77;100.00
74868;BME280;63419;42.262;12.210;2023-04-01T20:12:19;96684.06;;;13.74;100.00
74868;BME280;63419;42.262;12.210;2023-04-01T20:18:05;96694.47;;;11.27;100.00
74868;BME280;63419;42.262;12.210;2023-04-01T20:21:02;96690.00;;;11.82;100.00
74868;BME280;63419;42.262;12.210;2023-04-01T20:24:01;96682.34;;;11.60;100.00
74868;BME280;63419;42.262;12.210;2023-04-01T20:27:23;96690.16;;;10.50;100.00
74868;BME280;63419;42.262;12.210;2023-04-01T20:36:03;96688.91;;;11.43;100.00
74868;BME280;63419;42.262;12.210;2023-04-01T20:41:40;96668.25;;;11.85;100.00
74868;BME280;63419;42.262;12.210;2023-04-01T20:45:08;96667.78;;;11.91;100.00
74868;BME280;63419;42.262;12.210;2023-04-01T20:51:12;96665.31;;;11.36;100.00
74868;BME280;63419;42.262;12.210;2023-04-01T20:57:52;96664.78;;;11.54;100.00
74868;BME280;63419;42.262;12.210;2023-04-01T21:12:21;96657.47;;;12.63;100.00
74868;BME280;63419;42.262;12.210;2023-04-01T21:27:34;96649.81;;;12.21;100.00
74868;BME280;63419;42.262;12.210;2023-04-01T21:30:45;96657.31;;;12.14;100.00
74868;BME280;63419;42.262;12.210;2023-04-01T21:33:59;96666.13;;;12.11;100.00
74868;BME280;63419;42.262;12.210;2023-04-01T21:37:23;96670.47;;;12.42;100.00
74868;BME280;63419;42.262;12.210;2023-04-01T21:40:49;96678.47;;;9.88;100.00
74868;BME280;63419;42.262;12.210;2023-04-01T22:06:13;96707.13;;;10.64;100.00
74868;BME280;63419;42.262;12.210;2023-04-01T22:09:30;96699.63;;;10.72;100.00
74868;BME280;63419;42.262;12.210;2023-04-01T22:12:14;96703.97;;;10.83;100.00
74868;BME280;63419;42.262;12.210;2023-04-01T22:18:29;96682.16;;;10.53;100.00
74868;BME280;63419;42.262;12.210;2023-04-01T22:21:13;96684.50;;;10.67;100.00
74868;BME280;63419;42.262;12.210;2023-04-01T22:24:23;96680.34;;;10.99;100.00
74868;BME280;63419;42.262;12.210;2023-04-01T22:27:17;96673.06;;;11.36;100.00
74868;BME280;63419;42.262;12.210;2023-04-01T22:30:22;96662.38;;;11.62;100.00
74868;BME280;63419;42.262;12.210;2023-04-01T22:33:13;96649.59;;;11.81;100.00
74868;BME280;63419;42.262;12.210;2023-04-01T22:51:39;96605.53;;;12.04;100.00
74868;BME280;63419;42.262;12.210;2023-04-01T22:54:42;96612.34;;;11.84;100.00
74868;BME280;63419;42.262;12.210;2023-04-01T22:57:52;96608.56;;;11.67;100.00
74868;BME280;63419;42.262;12.210;2023-04-01T23:00:33;96605.22;;;11.76;100.00
74868;BME280;63419;42.262;12.210;2023-04-01T23:05:59;96610.59;;;10.78;100.00
74868;BME280;63419;42.262;12.210;2023-04-01T23:11:05;96652.72;;;8.56;100.00
74868;BME280;63419;42.262;12.210;2023-04-01T23:13:45;96657.25;;;9.96;100.00
74868;BME280;63419;42.262;12.210;2023-04-01T23:16:25;96658.34;;;10.04;100.00
74868;BME280;63419;42.262;12.210;2023-04-01T23:19:17;96658.47;;;10.48;100.00
74868;BME280;63419;42.262;12.210;2023-04-01T23:25:14;96645.56;;;10.14;100.00
74868;BME280;63419;42.262;12.210;2023-04-01T23:36:10;96661.94;;;9.79;100.00
74868;BME280;63419;42.262;12.210;2023-04-01T23:38:41;96654.91;;;9.93;100.00
74868;BME280;63419;42.262;12.210;2023-04-01T23:41:23;96655.78;;;9.58;100.00
74868;BME280;63419;42.262;12.210;2023-04-01T23:44:05;96651.88;;;9.99;100.00
74868;BME280;63419;42.262;12.210;2023-04-01T23:46:44;96654.09;;;10.03;100.00
74868;BME280;63419;42.262;12.210;2023-04-01T23:49:24;96652.34;;;9.93;100.00
74868;BME280;63419;42.262;12.210;2023-04-01T23:52:03;96645.81;;;10.22;100.00
74868;BME280;63419;42.262;12.210;2023-04-01T23:57:19;96646.06;;;10.42;100.00
